Time;durP1;ratioP1;P1;durP2;ratioP2;P2;SDS_P1;SDS_P2;PMS_P1;PMS_P2;Temp;Humidity;BMP_temperature;BMP_pressure;BME280_temperature;BME280_humidity;BME280_pressure;Samples;Min_cycle;Max_cycle;Signal;HPM_P1;HPM_P2
2024/03/12 00:01:26;;;;;;;7.10;5.47;;;;;;;8.42;89.03;97644.13;4205968;28;20773;-83
2024/03/12 00:03:30;;;;;;;8.40;6.13;;;;;;;8.39;88.63;97633.09;4205390;28;20207;-82
2024/03/12 00:05:32;;;;;;;7.87;5.63;;;;;;;8.35;87.93;97642.84;4185556;28;20212;-83
2024/03/12 00:07:35;;;;;;;11.95;6.22;;;;;;;8.33;89.23;97642.13;4217063;27;20669;-83
2024/03/12 00:09:38;;;;;;;9.33;5.80;;;;;;;8.29;88.52;97643.25;4203841;28;20212;-83
2024/03/12 00:11:42;;;;;;;8.05;6.22;;;;;;;8.28;88.05;97639.00;4205623;28;20649;-83
2024/03/12 00:13:45;;;;;;;8.47;5.90;;;;;;;8.26;88.08;97643.47;4205923;28;20235;-83
2024/03/12 00:15:50;;;;;;;6.68;5.70;;;;;;;8.22;88.84;97652.38;4187243;28;20728;-84
2024/03/12 00:17:55;;;;;;;9.70;6.65;;;;;;;8.22;89.35;97647.19;4205430;28;20204;-83
2024/03/12 00:19:59;;;;;;;9.10;6.07;;;;;;;8.20;89.51;97654.25;4208765;28;20205;-83
2024/03/12 00:22:04;;;;;;;7.93;6.03;;;;;;;8.16;89.69;97658.00;4219917;28;20711;-83
2024/03/12 00:24:09;;;;;;;7.63;6.28;;;;;;;8.17;88.65;97657.06;4211840;28;21161;-84
2024/03/12 00:26:11;;;;;;;8.70;5.70;;;;;;;8.15;89.47;97651.16;4187048;28;20244;-82
2024/03/12 00:28:14;;;;;;;6.50;5.63;;;;;;;8.14;88.55;97656.44;4205216;28;20656;-83
2024/03/12 00:30:18;;;;;;;9.13;6.10;;;;;;;8.12;90.06;97666.09;4221254;28;20629;-83
2024/03/12 00:32:23;;;;;;;8.43;6.10;;;;;;;8.06;89.23;97658.69;4221646;27;20613;-83
2024/03/12 00:34:27;;;;;;;6.93;5.88;;;;;;;8.01;88.48;97658.97;4205277;28;20207;-83
2024/03/12 00:36:30;;;;;;;8.85;5.93;;;;;;;7.96;87.54;97658.41;4207361;28;20200;-83
2024/03/12 00:38:34;;;;;;;8.40;5.85;;;;;;;7.95;89.46;97658.53;4184842;28;20205;-83
2024/03/12 00:40:42;;;;;;;8.90;5.40;;;;;;;7.95;89.62;97655.09;4186120;28;20241;-83
2024/03/12 00:42:46;;;;;;;8.30;5.57;;;;;;;7.94;88.31;97656.88;4183381;28;20221;-83
2024/03/12 00:44:50;;;;;;;6.90;5.57;;;;;;;7.94;88.57;97656.03;4185803;28;20209;-84
2024/03/12 00:46:54;;;;;;;9.52;5.57;;;;;;;7.91;88.70;97653.63;4205117;28;20216;-83
2024/03/12 00:48:59;;;;;;;6.32;4.90;;;;;;;7.88;89.19;97649.50;4206854;28;20211;-82
2024/03/12 00:51:02;;;;;;;9.48;5.63;;;;;;;7.86;88.04;97651.31;4209191;28;20292;-83
2024/03/12 00:53:07;;;;;;;7.85;5.80;;;;;;;7.81;87.82;97658.59;4205344;28;20196;-83
2024/03/12 00:55:09;;;;;;;7.95;5.95;;;;;;;7.79;88.37;97657.88;4207980;28;20209;-83
2024/03/12 00:57:13;;;;;;;7.90;5.75;;;;;;;7.72;88.41;97655.75;4207293;28;20622;-83
2024/03/12 00:59:18;;;;;;;6.30;4.95;;;;;;;7.74;88.82;97659.09;4187683;28;20271;-83
2024/03/12 01:01:22;;;;;;;8.07;5.32;;;;;;;7.70;89.02;97657.63;4204218;28;20197;-83
2024/03/12 01:03:26;;;;;;;7.95;5.50;;;;;;;7.65;88.77;97662.25;4188602;28;20235;-83
2024/03/12 01:05:31;;;;;;;7.95;5.47;;;;;;;7.65;88.61;97662.25;4203244;28;20204;-83
2024/03/12 01:07:34;;;;;;;9.35;5.65;;;;;;;7.64;88.74;97663.22;4199887;28;20201;-83
2024/03/12 01:09:40;;;;;;;8.90;5.50;;;;;;;7.64;88.89;97673.59;4202004;28;20201;-82
2024/03/12 01:11:43;;;;;;;8.57;6.30;;;;;;;7.63;88.55;97670.13;4205562;28;20205;-82
2024/03/12 01:13:47;;;;;;;7.65;6.15;;;;;;;7.61;89.76;97673.78;4203435;28;20228;-83
2024/03/12 01:15:52;;;;;;;7.45;5.47;;;;;;;7.59;89.24;97670.44;4202364;28;20582;-83
2024/03/12 01:17:56;;;;;;;7.55;5.82;;;;;;;7.53;88.33;97674.28;4217665;28;20203;-83
2024/03/12 01:20:00;;;;;;;8.32;5.60;;;;;;;7.47;88.51;97668.59;4205219;28;20291;-82
2024/03/12 01:22:05;;;;;;;9.23;6.95;;;;;;;7.44;88.47;97676.59;4204816;28;20217;-82
2024/03/12 01:24:09;;;;;;;7.20;5.60;;;;;;;7.42;88.55;97677.63;4218059;28;20246;-83
2024/03/12 01:26:12;;;;;;;7.82;5.82;;;;;;;7.39;88.98;97678.63;4220566;28;20287;-82
2024/03/12 01:28:16;;;;;;;9.07;5.68;;;;;;;7.38;89.64;97676.13;4203307;28;20818;-83
2024/03/12 01:30:20;;;;;;;8.38;5.85;;;;;;;7.35;89.85;97682.38;4207435;28;20204;-83
2024/03/12 01:32:23;;;;;;;7.03;5.43;;;;;;;7.31;88.78;97685.25;4207722;28;20218;-83
2024/03/12 01:34:26;;;;;;;7.93;5.40;;;;;;;7.26;89.76;97682.94;4204587;28;20632;-83
2024/03/12 01:36:34;;;;;;;9.45;5.63;;;;;;;7.22;90.12;97684.03;4204299;28;20201;-83
2024/03/12 01:38:39;;;;;;;8.00;5.93;;;;;;;7.19;89.80;97686.81;4204155;28;20800;-83
2024/03/12 01:40:42;;;;;;;8.60;5.50;;;;;;;7.17;89.20;97685.25;4209119;28;20219;-83
2024/03/12 01:42:45;;;;;;;7.10;5.65;;;;;;;7.14;89.32;97688.88;4203947;28;20224;-82
2024/03/12 01:44:50;;;;;;;9.07;5.95;;;;;;;7.13;89.57;97692.38;4202882;28;20211;-83
2024/03/12 01:46:53;;;;;;;9.55;5.53;;;;;;;7.09;89.66;97685.72;4188157;28;20252;-83
2024/03/12 01:48:56;;;;;;;9.57;5.97;;;;;;;7.08;89.23;97694.44;4202110;28;20534;-83
2024/03/12 01:51:00;;;;;;;7.28;5.53;;;;;;;7.06;88.75;97688.50;4202193;28;20204;-82
2024/03/12 01:53:05;;;;;;;6.88;5.30;;;;;;;7.04;89.52;97690.34;4217832;27;20203;-82
2024/03/12 01:55:14;;;;;;;6.47;4.85;;;;;;;7.02;88.77;97693.13;4207322;28;20684;-83
2024/03/12 01:57:17;;;;;;;6.15;5.20;;;;;;;6.98;88.98;97696.84;4209688;28;20214;-83
2024/03/12 01:59:23;;;;;;;9.50;5.45;;;;;;;6.92;89.30;97698.03;4218249;28;20211;-83
2024/03/12 02:01:26;;;;;;;5.85;4.82;;;;;;;6.91;88.72;97700.72;4207501;28;20238;-88
2024/03/12 02:03:33;;;;;;;9.77;5.00;;;;;;;6.90;89.30;97706.81;4206110;28;20228;-88
2024/03/12 02:05:36;;;;;;;6.93;5.03;;;;;;;6.87;89.14;97704.41;4184558;28;20213;-87
2024/03/12 02:07:40;;;;;;;6.05;4.57;;;;;;;6.87;89.63;97709.59;4207260;28;20212;-88
2024/03/12 02:09:43;;;;;;;6.07;4.63;;;;;;;6.84;89.35;97705.47;4210461;28;20254;-88
2024/03/12 02:11:47;;;;;;;9.02;5.53;;;;;;;6.77;89.01;97700.72;4207010;28;20207;-88
2024/03/12 02:13:51;;;;;;;6.07;4.40;;;;;;;6.72;88.26;97698.41;4209900;28;20202;-89
2024/03/12 02:15:54;;;;;;;6.65;4.50;;;;;;;6.69;88.87;97705.50;4208062;28;20241;-88
2024/03/12 02:17:58;;;;;;;8.68;5.50;;;;;;;6.65;89.16;97704.03;4205053;28;20193;-88
2024/03/12 02:20:00;;;;;;;7.95;5.50;;;;;;;6.65;89.16;97706.63;4203204;28;20236;-88
2024/03/12 02:22:04;;;;;;;7.10;4.80;;;;;;;6.63;89.26;97704.13;4210952;28;20655;-88
2024/03/12 02:24:11;;;;;;;5.60;4.53;;;;;;;6.58;89.12;97698.41;4225757;27;20257;-88
2024/03/12 02:26:15;;;;;;;5.93;4.18;;;;;;;6.56;89.04;97694.22;4206221;28;20208;-87
2024/03/12 02:28:18;;;;;;;6.17;4.70;;;;;;;6.56;89.85;97707.19;4222483;27;20207;-88
2024/03/12 02:30:21;;;;;;;7.18;4.78;;;;;;;6.53;89.40;97706.53;4191494;28;20611;-86
2024/03/12 02:32:25;;;;;;;8.68;4.60;;;;;;;6.52;89.41;97713.44;4217430;27;20203;-87
2024/03/12 02:34:29;;;;;;;7.88;4.45;;;;;;;6.53;89.93;97714.31;4202745;28;20282;-89
2024/03/12 02:36:36;;;;;;;9.45;4.22;;;;;;;6.53;89.38;97716.88;4205147;28;20207;-88
2024/03/12 02:38:40;;;;;;;6.07;4.60;;;;;;;6.52;89.77;97716.03;4207314;28;20204;-87
2024/03/12 02:40:46;;;;;;;5.28;4.40;;;;;;;6.51;89.69;97711.78;4208815;28;20273;-89
2024/03/12 02:42:49;;;;;;;6.93;5.93;;;;;;;6.47;89.09;97718.06;4209011;28;20645;-88
2024/03/12 02:44:52;;;;;;;4.50;4.10;;;;;;;6.40;88.72;97714.16;4203774;28;20229;-88
2024/03/12 02:46:56;;;;;;;6.32;4.20;;;;;;;6.40;89.34;97721.09;4217837;28;20202;-87
2024/03/12 02:48:59;;;;;;;5.32;4.00;;;;;;;6.38;88.65;97723.78;4208172;28;20334;-87
2024/03/12 02:51:03;;;;;;;7.30;4.53;;;;;;;6.33;90.10;97715.44;4207392;28;20201;-89
2024/03/12 02:53:06;;;;;;;8.65;4.57;;;;;;;6.33;89.38;97720.63;4205797;28;20197;-88
2024/03/12 02:55:10;;;;;;;6.32;4.15;;;;;;;6.30;89.14;97725.97;4205821;28;20253;-87
2024/03/12 02:57:15;;;;;;;6.53;4.10;;;;;;;6.27;89.23;97722.72;4204145;28;20228;-88
2024/03/12 02:59:18;;;;;;;6.50;4.22;;;;;;;6.24;89.33;97728.91;4203628;28;20213;-87
2024/03/12 03:01:21;;;;;;;6.22;4.00;;;;;;;6.22;89.44;97720.41;4204349;28;20204;-87
2024/03/12 03:03:25;;;;;;;6.05;4.05;;;;;;;6.20;89.28;97724.81;4210022;28;20208;-88
2024/03/12 03:05:28;;;;;;;6.20;4.38;;;;;;;6.17;89.32;97724.19;4208398;28;20264;-88
2024/03/12 03:07:31;;;;;;;5.30;4.40;;;;;;;6.17;89.01;97727.59;4190789;28;20239;-87
2024/03/12 03:09:35;;;;;;;4.85;3.50;;;;;;;6.17;89.43;97729.34;4224173;28;20204;-87
2024/03/12 03:11:38;;;;;;;5.70;4.03;;;;;;;6.12;89.55;97731.38;4202959;28;20236;-88
2024/03/12 03:13:43;;;;;;;7.45;4.38;;;;;;;6.09;89.60;97734.97;4203665;28;20714;-89
2024/03/12 03:15:46;;;;;;;5.28;4.45;;;;;;;6.07;90.10;97725.59;4206492;28;20204;-88
2024/03/12 03:17:50;;;;;;;5.50;4.38;;;;;;;6.05;90.26;97722.28;4202777;28;20202;-87
2024/03/12 03:19:54;;;;;;;7.70;4.45;;;;;;;6.06;89.90;97728.28;4190203;28;20201;-86
2024/03/12 03:21:57;;;;;;;5.47;4.70;;;;;;;6.03;90.16;97728.44;4207186;28;20205;-87
2024/03/12 03:24:02;;;;;;;8.95;5.25;;;;;;;6.01;90.40;97725.94;4191189;28;20225;-86
2024/03/12 03:26:05;;;;;;;6.45;4.50;;;;;;;5.97;89.66;97729.66;4208501;28;20214;-88
2024/03/12 03:28:08;;;;;;;6.35;4.50;;;;;;;5.95;89.94;97739.22;4200197;28;20292;-88
2024/03/12 03:30:17;;;;;;;6.68;4.63;;;;;;;5.88;89.72;97735.34;4207050;28;20219;-89
2024/03/12 03:32:23;;;;;;;6.22;4.20;;;;;;;5.87;89.59;97733.66;4204031;28;20211;-87
2024/03/12 03:34:28;;;;;;;7.65;5.15;;;;;;;5.86;89.82;97744.09;4191274;28;20822;-88
2024/03/12 03:36:32;;;;;;;10.52;4.90;;;;;;;5.86;89.79;97746.69;4204185;28;20214;-89
2024/03/12 03:38:40;;;;;;;6.13;4.45;;;;;;;5.90;90.30;97750.78;4206382;28;20298;-88
2024/03/12 03:40:43;;;;;;;6.65;4.70;;;;;;;5.90;90.48;97755.94;4205034;28;20351;-88
2024/03/12 03:42:47;;;;;;;5.32;4.28;;;;;;;5.87;89.85;97761.28;4203437;28;20264;-87
2024/03/12 03:44:51;;;;;;;15.80;5.10;;;;;;;5.91;90.34;97765.38;4206289;28;20712;-88
2024/03/12 03:46:56;;;;;;;8.50;5.25;;;;;;;5.85;91.30;97765.69;4200171;28;20204;-88
2024/03/12 03:49:00;;;;;;;6.20;4.35;;;;;;;5.89;91.47;97767.22;4206510;28;20238;-87
2024/03/12 03:51:03;;;;;;;4.60;3.60;;;;;;;5.83;91.48;97772.72;4207454;28;20240;-88
2024/03/12 03:53:08;;;;;;;7.57;5.10;;;;;;;5.82;92.03;97778.84;4204077;28;20351;-88
2024/03/12 03:55:10;;;;;;;5.25;3.80;;;;;;;5.84;91.61;97774.41;4187584;28;20199;-88
2024/03/12 03:57:14;;;;;;;8.13;4.35;;;;;;;5.79;92.48;97781.59;4200963;28;20232;-86
2024/03/12 03:59:19;;;;;;;7.78;4.40;;;;;;;5.84;91.82;97777.81;4206343;28;20207;-87
2024/03/12 04:01:23;;;;;;;5.93;4.25;;;;;;;5.84;92.66;97784.75;4206982;28;20624;-88
2024/03/12 04:03:29;;;;;;;6.13;3.90;;;;;;;5.87;92.56;97782.00;4206972;28;20228;-89
2024/03/12 04:05:33;;;;;;;6.30;4.57;;;;;;;5.87;92.92;97780.22;4206790;28;20246;-85
2024/03/12 04:07:36;;;;;;;6.07;4.40;;;;;;;5.89;93.23;97775.78;4196690;28;20359;-89
2024/03/12 04:09:39;;;;;;;5.18;4.40;;;;;;;5.89;93.38;97783.56;4204290;28;20289;-88
2024/03/12 04:11:44;;;;;;;5.13;4.30;;;;;;;5.92;92.65;97785.16;4203033;28;20213;-88
2024/03/12 04:13:47;;;;;;;5.80;3.78;;;;;;;5.91;93.00;97783.47;4203372;28;20219;-88
2024/03/12 04:15:52;;;;;;;5.63;4.10;;;;;;;5.94;92.95;97785.91;4207292;28;20212;-86
2024/03/12 04:17:55;;;;;;;6.20;4.40;;;;;;;5.98;92.66;97795.16;4205074;28;20297;-88
2024/03/12 04:19:59;;;;;;;5.22;4.20;;;;;;;6.03;93.00;97794.00;4189321;28;20216;-88
2024/03/12 04:22:04;;;;;;;6.28;4.20;;;;;;;6.04;92.63;97793.06;4189904;28;20312;-87
2024/03/12 04:24:10;;;;;;;5.80;4.10;;;;;;;6.08;93.13;97801.53;4203214;28;20274;-86
2024/03/12 04:26:13;;;;;;;5.38;4.38;;;;;;;6.12;92.40;97807.25;4203126;28;20201;-88
2024/03/12 04:28:18;;;;;;;5.63;4.30;;;;;;;6.15;92.12;97811.44;4205104;28;20232;-89
2024/03/12 04:30:21;;;;;;;6.25;4.03;;;;;;;6.17;92.31;97818.19;4185877;28;20671;-89
2024/03/12 04:32:27;;;;;;;6.80;4.75;;;;;;;6.20;92.63;97817.19;4203928;28;20215;-87
2024/03/12 04:34:33;;;;;;;7.13;4.30;;;;;;;6.19;92.55;97818.97;4190401;28;20660;-88
2024/03/12 04:36:38;;;;;;;5.97;4.30;;;;;;;6.22;92.33;97821.38;4190038;28;20260;-88
2024/03/12 04:38:41;;;;;;;4.53;3.97;;;;;;;6.24;92.42;97827.31;4204232;28;20205;-88
2024/03/12 04:40:47;;;;;;;4.93;3.80;;;;;;;6.22;92.43;97823.13;4204417;28;20304;-88
2024/03/12 04:42:50;;;;;;;5.40;3.80;;;;;;;6.23;92.79;97835.97;4202608;28;20215;-87
2024/03/12 04:44:53;;;;;;;7.22;5.47;;;;;;;6.24;92.46;97829.03;4204239;28;20970;-85
2024/03/12 04:46:56;;;;;;;6.10;4.20;;;;;;;6.23;93.13;97835.97;4205678;28;20200;-87
2024/03/12 04:49:01;;;;;;;4.65;4.00;;;;;;;6.23;93.42;97835.97;4188503;28;20676;-88
2024/03/12 04:51:05;;;;;;;8.00;6.25;;;;;;;6.25;92.79;97836.72;4188777;28;20226;-87
2024/03/12 04:53:10;;;;;;;10.23;6.88;;;;;;;6.32;92.62;97839.81;4199426;28;20230;-85
2024/03/12 04:55:14;;;;;;;8.40;6.13;;;;;;;6.34;92.82;97849.16;4206774;28;20293;-88
2024/03/12 04:57:17;;;;;;;8.13;6.30;;;;;;;6.38;92.92;97848.06;4197988;28;20218;-88
2024/03/12 04:59:21;;;;;;;10.55;6.75;;;;;;;6.41;92.67;97853.09;4217625;28;20309;-88
2024/03/12 05:01:26;;;;;;;8.00;6.15;;;;;;;6.42;92.83;97851.31;4222718;28;20205;-86
2024/03/12 05:03:30;;;;;;;7.05;6.15;;;;;;;6.42;92.59;97849.59;4197913;28;20205;-87
2024/03/12 05:05:33;;;;;;;9.15;6.53;;;;;;;6.38;92.39;97866.19;4207774;28;20230;-88
2024/03/12 05:07:37;;;;;;;9.32;6.60;;;;;;;6.40;93.32;97863.53;4207111;28;20306;-88
2024/03/12 05:09:41;;;;;;;9.30;6.40;;;;;;;6.42;93.29;97856.50;4207456;28;20679;-88
2024/03/12 05:11:44;;;;;;;7.70;5.95;;;;;;;6.47;93.61;97873.47;4205493;28;20554;-85
2024/03/12 05:13:47;;;;;;;9.32;5.72;;;;;;;6.48;93.41;97882.91;4190512;28;20217;-88
2024/03/12 05:15:50;;;;;;;7.35;5.65;;;;;;;6.51;93.34;97885.34;4193637;28;20210;-86
2024/03/12 05:17:55;;;;;;;7.85;5.50;;;;;;;6.56;93.61;97885.06;4212927;28;20193;-88
2024/03/12 05:19:58;;;;;;;7.20;6.00;;;;;;;6.58;92.96;97895.28;4209955;28;20282;-87
2024/03/12 05:22:03;;;;;;;7.45;6.30;;;;;;;6.60;94.37;97901.19;4190465;28;20296;-86
2024/03/12 05:24:07;;;;;;;8.40;6.03;;;;;;;6.63;93.64;97908.78;4204925;28;20473;-87
2024/03/12 05:26:13;;;;;;;8.85;6.70;;;;;;;6.64;93.54;97901.84;4206056;28;20221;-88
2024/03/12 05:28:19;;;;;;;9.02;7.20;;;;;;;6.66;93.88;97906.03;4209298;28;20214;-88
2024/03/12 05:30:23;;;;;;;8.25;6.78;;;;;;;6.68;93.89;97908.53;4207389;28;20254;-82
2024/03/12 05:32:26;;;;;;;9.98;7.28;;;;;;;6.70;94.16;97909.28;4191355;28;20288;-82
2024/03/12 05:34:37;;;;;;;9.20;6.93;;;;;;;6.72;94.48;97913.47;4206865;28;20227;-83
2024/03/12 05:36:41;;;;;;;9.25;7.13;;;;;;;6.73;94.66;97915.09;4207543;28;20304;-83
2024/03/12 05:38:44;;;;;;;9.57;7.05;;;;;;;6.75;94.41;97921.06;4187465;28;20228;-83
2024/03/12 05:40:57;;;;;;;12.15;6.90;;;;;;;6.75;94.81;97917.63;4200176;28;20223;-83
2024/03/12 05:50:07;;;;;;;12.13;6.45;;;;;;;6.74;93.41;97923.75;4205282;28;20224;-86
2024/03/12 05:52:11;;;;;;;7.63;6.50;;;;;;;6.74;94.72;97919.38;4207816;28;20227;-85
2024/03/12 05:54:16;;;;;;;9.27;6.85;;;;;;;6.75;94.98;97926.25;4192091;28;20235;-85
2024/03/12 05:56:19;;;;;;;11.10;6.38;;;;;;;6.75;94.66;97918.47;4209760;28;20242;-85
2024/03/12 05:58:25;;;;;;;10.10;6.05;;;;;;;6.72;95.26;97921.22;4206274;28;20201;-84
2024/03/12 06:00:30;;;;;;;10.52;6.88;;;;;;;6.75;94.47;97927.97;4205798;28;20202;-84
2024/03/12 06:02:33;;;;;;;7.78;6.43;;;;;;;6.77;95.64;97926.97;4209021;28;20231;-85
2024/03/12 06:04:36;;;;;;;9.97;7.23;;;;;;;6.82;95.21;97929.31;4209417;28;20204;-84
2024/03/12 06:06:40;;;;;;;9.07;6.10;;;;;;;6.86;95.53;97925.66;4201003;28;21265;-86
2024/03/12 06:08:44;;;;;;;8.35;6.47;;;;;;;6.91;95.34;97936.56;4205545;28;20201;-84
2024/03/12 06:10:48;;;;;;;6.68;5.80;;;;;;;6.99;95.84;97944.75;4190568;28;20762;-85
2024/03/12 06:12:51;;;;;;;9.18;6.20;;;;;;;7.04;95.58;97946.16;4202378;28;20197;-85
2024/03/12 06:14:56;;;;;;;7.43;5.75;;;;;;;7.10;95.77;97948.41;4202924;28;20236;-84
2024/03/12 06:16:59;;;;;;;7.68;6.30;;;;;;;7.13;96.79;97950.84;4218939;28;20582;-82
2024/03/12 06:19:02;;;;;;;9.05;6.70;;;;;;;7.16;96.53;97951.47;4226916;27;20215;-82
2024/03/12 06:21:07;;;;;;;7.35;5.45;;;;;;;7.22;96.89;97956.31;4225005;27;20269;-82
2024/03/12 06:23:10;;;;;;;7.22;6.13;;;;;;;7.27;96.18;97956.88;4200103;28;20212;-82
2024/03/12 06:25:15;;;;;;;7.05;5.18;;;;;;;7.34;97.18;97955.63;4206599;28;20217;-82
2024/03/12 06:27:19;;;;;;;5.72;4.97;;;;;;;7.41;97.11;97956.09;4204107;28;21768;-83
2024/03/12 06:29:23;;;;;;;6.78;5.63;;;;;;;7.48;96.93;97957.41;4204417;28;20200;-85
2024/03/12 06:31:29;;;;;;;6.63;4.82;;;;;;;7.53;97.70;97966.59;4204307;28;20216;-84
2024/03/12 06:33:33;;;;;;;8.93;6.20;;;;;;;7.59;96.94;97963.63;4220610;28;20199;-84
2024/03/12 06:35:36;;;;;;;7.05;5.53;;;;;;;7.66;96.91;97968.38;4187761;28;20213;-85
2024/03/12 06:37:41;;;;;;;9.32;6.40;;;;;;;7.72;96.16;97972.38;4200852;28;20204;-84
2024/03/12 06:39:44;;;;;;;6.22;5.05;;;;;;;7.78;96.22;97972.03;4181796;28;20217;-84
2024/03/12 06:41:49;;;;;;;5.93;5.30;;;;;;;7.82;96.71;97974.34;4204803;28;20204;-91
2024/03/12 06:43:52;;;;;;;7.00;5.10;;;;;;;7.89;96.33;97970.44;4210445;28;20705;-90
2024/03/12 06:45:56;;;;;;;8.93;5.72;;;;;;;7.93;97.86;97974.53;4201461;28;20235;-88
2024/03/12 06:48:01;;;;;;;5.75;4.70;;;;;;;7.99;96.95;97971.56;4220763;28;20248;-91
2024/03/12 06:50:08;;;;;;;7.10;5.20;;;;;;;8.05;96.61;97981.59;4212155;28;20801;-91
2024/03/12 06:52:12;;;;;;;6.30;5.33;;;;;;;8.11;97.25;97979.47;4190879;28;20327;-90
2024/03/12 06:54:15;;;;;;;5.57;4.90;;;;;;;8.18;97.97;97975.59;4210278;28;20668;-88
2024/03/12 06:56:18;;;;;;;6.50;5.80;;;;;;;8.25;97.03;97982.06;4189944;28;20205;-90
2024/03/12 06:58:21;;;;;;;6.67;4.63;;;;;;;8.32;97.81;97985.16;4209058;28;20212;-91
2024/03/12 07:00:32;;;;;;;6.97;5.17;;;;;;;8.35;97.11;97988.38;4194346;28;20630;-90
2024/03/12 07:02:38;;;;;;;6.47;5.03;;;;;;;8.37;96.93;97986.53;4208508;28;20622;-90
2024/03/12 07:04:46;;;;;;;7.00;6.20;;;;;;;8.40;97.36;97988.94;4208575;28;20630;-89
2024/03/12 07:06:50;;;;;;;7.90;5.70;;;;;;;8.44;97.50;97997.41;4207308;28;20762;-90
2024/03/12 07:09:01;;;;;;;7.60;6.60;;;;;;;8.45;95.94;97992.09;4209520;28;20630;-91
2024/03/12 07:11:08;;;;;;;8.90;6.90;;;;;;;8.45;97.19;97998.13;4194696;28;20209;-89
2024/03/12 07:13:12;;;;;;;8.33;6.30;;;;;;;8.47;97.59;97993.66;4207898;28;20685;-89
2024/03/12 07:15:18;;;;;;;7.70;6.90;;;;;;;8.49;97.37;98001.38;4192359;28;20650;-91
2024/03/12 07:17:20;;;;;;;10.60;7.43;;;;;;;8.50;97.08;98000.44;4208671;28;20627;-90
2024/03/12 07:19:25;;;;;;;12.03;6.93;;;;;;;8.54;98.03;97996.75;4225215;27;20615;-90
2024/03/12 07:21:31;;;;;;;9.80;7.37;;;;;;;8.54;97.54;97997.56;4224039;27;20737;-90
2024/03/12 07:23:36;;;;;;;7.83;6.90;;;;;;;8.56;97.82;98006.09;4207259;28;20615;-91
2024/03/12 07:25:42;;;;;;;7.87;6.27;;;;;;;8.57;96.70;97996.53;4190501;28;20628;-91
2024/03/12 07:27:46;;;;;;;9.47;7.83;;;;;;;8.55;96.85;98004.44;4203738;28;20648;-92
2024/03/12 07:29:49;;;;;;;11.30;8.10;;;;;;;8.51;97.42;98012.53;4192049;28;21200;-91
2024/03/12 07:31:52;;;;;;;10.77;7.20;;;;;;;8.50;97.21;98005.63;4207811;28;20611;-91
2024/03/12 07:33:56;;;;;;;8.47;7.17;;;;;;;8.51;95.82;98007.31;4220076;27;20407;-91
2024/03/12 07:35:59;;;;;;;9.80;7.30;;;;;;;8.50;96.79;98006.47;4190183;28;20682;-91
2024/03/12 07:38:05;;;;;;;9.77;6.70;;;;;;;8.51;96.36;98000.34;4208139;28;20612;-90
2024/03/12 07:40:09;;;;;;;12.47;10.07;;;;;;;8.52;95.82;98006.38;4190259;28;20648;-90
2024/03/12 07:42:18;;;;;;;12.20;9.10;;;;;;;8.54;95.79;98010.56;4200641;28;21746;-90
2024/03/12 07:44:22;;;;;;;9.87;8.80;;;;;;;8.56;96.10;98013.06;4203769;28;20658;-89
2024/03/12 07:46:26;;;;;;;8.60;7.70;;;;;;;8.56;95.28;98016.47;4217909;28;20658;-90
2024/03/12 07:48:30;;;;;;;7.70;6.90;;;;;;;8.57;94.86;98015.56;4208796;28;20635;-90
2024/03/12 07:50:34;;;;;;;9.60;6.57;;;;;;;8.58;96.22;98013.78;4208937;28;20622;-84
2024/03/12 07:52:37;;;;;;;8.17;6.70;;;;;;;8.56;96.28;98021.69;4205868;28;20259;-84
2024/03/12 07:54:43;;;;;;;11.57;8.57;;;;;;;8.58;95.50;98024.19;4203620;28;20627;-84
2024/03/12 07:56:48;;;;;;;11.00;7.50;;;;;;;8.56;96.46;98016.47;4190349;28;20619;-84
2024/03/12 07:58:52;;;;;;;14.50;9.23;;;;;;;8.57;95.58;98020.75;4204186;28;21139;-84
2024/03/12 08:00:55;;;;;;;11.50;9.10;;;;;;;8.58;96.11;98030.22;4214676;28;21385;-84
2024/03/12 08:02:59;;;;;;;15.90;11.57;;;;;;;8.60;96.56;98023.19;4191095;28;20691;-84
2024/03/12 08:05:04;;;;;;;17.37;11.70;;;;;;;8.62;96.35;98031.69;4189134;28;20631;-83
2024/03/12 08:07:07;;;;;;;17.70;12.20;;;;;;;8.64;96.19;98029.00;4191093;28;20667;-84
2024/03/12 08:09:12;;;;;;;15.77;11.00;;;;;;;8.67;96.23;98039.22;4200470;28;20663;-84
2024/03/12 08:11:19;;;;;;;11.63;8.90;;;;;;;8.70;96.10;98033.84;4220168;27;20304;-84
2024/03/12 08:13:22;;;;;;;14.87;11.73;;;;;;;8.72;96.77;98044.97;4204808;28;20623;-82
2024/03/12 08:15:27;;;;;;;18.43;13.40;;;;;;;8.73;96.49;98042.25;4201795;28;20696;-84
2024/03/12 08:17:30;;;;;;;14.40;10.53;;;;;;;8.75;96.16;98049.97;4204164;28;20714;-84
2024/03/12 08:19:33;;;;;;;15.10;10.33;;;;;;;8.75;96.43;98047.38;4215808;28;21021;-82
2024/03/12 08:21:37;;;;;;;12.83;10.23;;;;;;;8.74;97.05;98054.34;4184050;28;20733;-84
2024/03/12 08:23:41;;;;;;;16.50;11.60;;;;;;;8.75;96.64;98047.38;4201900;28;20634;-84
2024/03/12 08:25:46;;;;;;;14.67;11.00;;;;;;;8.78;97.02;98062.78;4199405;28;20620;-84
2024/03/12 08:28:03;;;;;;;13.63;10.80;;;;;;;8.81;96.43;98060.00;4203215;28;21155;-83
2024/03/12 08:30:09;;;;;;;13.03;10.03;;;;;;;8.83;97.68;98061.59;4206496;28;20634;-84
2024/03/12 08:32:13;;;;;;;14.60;12.33;;;;;;;8.87;96.94;98064.81;4222582;28;20686;-83
2024/03/12 08:34:16;;;;;;;18.83;12.00;;;;;;;8.90;97.33;98069.81;4189900;28;20665;-84
2024/03/12 08:36:19;;;;;;;16.60;12.07;;;;;;;8.92;96.44;98066.22;4192807;28;20624;-84
2024/03/12 08:38:23;;;;;;;16.90;14.50;;;;;;;8.95;95.93;98071.22;4205759;28;20288;-83
2024/03/12 08:40:27;;;;;;;16.80;14.27;;;;;;;8.95;96.14;98069.44;4205247;28;20651;-84
2024/03/12 08:42:31;;;;;;;15.27;12.80;;;;;;;8.94;97.49;98060.00;4209000;28;20707;-83
2024/03/12 08:44:39;;;;;;;14.20;12.00;;;;;;;8.97;97.85;98071.94;4205720;28;20611;-84
2024/03/12 08:46:42;;;;;;;13.50;11.00;;;;;;;8.98;97.92;98069.25;4209447;28;20635;-83
2024/03/12 08:48:45;;;;;;;14.00;11.03;;;;;;;9.01;97.72;98065.63;4209403;28;21432;-83
2024/03/12 08:50:50;;;;;;;12.00;10.10;;;;;;;9.04;97.27;98066.28;4208626;28;20752;-84
2024/03/12 08:52:53;;;;;;;16.10;12.87;;;;;;;9.06;97.68;98072.19;4207714;28;20975;-84
2024/03/12 08:54:57;;;;;;;14.90;12.43;;;;;;;9.08;97.49;98070.38;4188278;28;21058;-83
2024/03/12 08:57:01;;;;;;;15.23;10.43;;;;;;;9.10;98.00;98071.09;4222947;28;20748;-83
2024/03/12 08:59:05;;;;;;;10.50;8.73;;;;;;;9.10;97.95;98071.09;4207759;28;21009;-83
2024/03/12 09:01:11;;;;;;;11.00;9.07;;;;;;;9.09;96.56;98069.41;4210348;28;20684;-88
2024/03/12 09:03:15;;;;;;;11.70;8.90;;;;;;;9.09;97.51;98074.63;4210214;28;20630;-90
2024/03/12 09:05:19;;;;;;;11.70;8.73;;;;;;;9.08;97.91;98082.50;4193611;28;20681;-90
2024/03/12 09:07:22;;;;;;;11.80;8.57;;;;;;;9.10;96.89;98085.88;4207810;28;20668;-90
2024/03/12 09:09:27;;;;;;;10.30;8.30;;;;;;;9.13;98.28;98093.50;4206452;28;20611;-90
2024/03/12 09:11:30;;;;;;;13.53;9.33;;;;;;;9.16;97.71;98091.53;4205755;28;20625;-88
2024/03/12 09:13:34;;;;;;;11.70;10.07;;;;;;;9.19;97.97;98093.09;4205856;28;20619;-88
2024/03/12 09:15:37;;;;;;;13.80;11.63;;;;;;;9.21;97.63;98093.84;4206411;28;20688;-86
2024/03/12 09:17:43;;;;;;;14.90;11.15;;;;;;;9.20;98.00;98095.63;4204153;28;21194;-91
2024/03/12 09:19:48;;;;;;;11.90;9.80;;;;;;;9.15;97.72;98086.41;4210549;28;20295;-91
2024/03/12 09:21:53;;;;;;;14.47;10.60;;;;;;;9.13;98.01;98091.72;4210197;28;20633;-91
2024/03/12 09:23:57;;;;;;;14.27;9.77;;;;;;;9.13;97.42;98086.50;4211093;28;20690;-89
2024/03/12 09:26:05;;;;;;;12.10;10.30;;;;;;;9.18;98.22;98096.63;4188969;28;20624;-90
2024/03/12 09:28:09;;;;;;;12.07;10.50;;;;;;;9.19;98.97;98096.53;4219883;28;20834;-88
2024/03/12 09:30:12;;;;;;;25.30;20.43;;;;;;;9.22;99.00;98098.94;4201585;28;21005;-90
2024/03/12 09:32:16;;;;;;;19.80;14.10;;;;;;;9.24;99.20;98096.25;4198267;28;21055;-90
2024/03/12 09:34:22;;;;;;;14.13;11.03;;;;;;;9.24;98.75;98104.06;4205010;28;20621;-90
2024/03/12 09:36:24;;;;;;;14.97;11.90;;;;;;;9.27;99.21;98104.69;4198041;28;20671;-90
2024/03/12 09:38:29;;;;;;;11.80;9.77;;;;;;;9.32;98.57;98107.00;4201635;28;20639;-89
2024/03/12 09:40:32;;;;;;;13.57;9.93;;;;;;;9.37;98.74;98104.94;4197314;28;20710;-88
2024/03/12 09:42:36;;;;;;;13.97;10.90;;;;;;;9.41;98.96;98102.91;4184461;28;21343;-89
2024/03/12 09:44:41;;;;;;;12.97;10.10;;;;;;;9.45;98.80;98106.13;4200937;28;20627;-90
2024/03/12 09:46:46;;;;;;;11.67;8.97;;;;;;;9.51;98.93;98111.78;4202623;28;20647;-86
2024/03/12 09:48:51;;;;;;;13.80;10.17;;;;;;;9.57;98.61;98113.97;4192586;28;20647;-87
2024/03/12 09:50:56;;;;;;;35.67;21.93;;;;;;;9.62;98.85;98111.94;4204950;28;20635;-89
2024/03/12 09:53:00;;;;;;;38.83;25.73;;;;;;;9.66;98.43;98112.56;4205125;28;20657;-88
2024/03/12 09:55:04;;;;;;;20.07;15.00;;;;;;;9.66;99.23;98117.78;4218749;27;20618;-90
2024/03/12 09:57:10;;;;;;;29.77;19.23;;;;;;;9.69;98.98;98115.81;4206985;28;21199;-86